sensor_id;sensor_type;location;lat;lon;timestamp;temperature;humidity
4826;DHT22;2427;50.934;6.776;2022-10-17T00:01:08;15.40;99.90
4826;DHT22;2427;50.934;6.776;2022-10-17T00:03:35;15.30;99.90
4826;DHT22;2427;50.934;6.776;2022-10-17T00:06:12;15.30;99.90
4826;DHT22;2427;50.934;6.776;2022-10-17T00:08:38;15.30;99.90
4826;DHT22;2427;50.934;6.776;2022-10-17T00:11:07;15.30;99.90
4826;DHT22;2427;50.934;6.776;2022-10-17T00:13:34;15.30;99.90
4826;DHT22;2427;50.934;6.776;2022-10-17T00:16:00;15.30;99.90
4826;DHT22;2427;50.934;6.776;2022-10-17T00:18:25;15.30;99.90
4826;DHT22;2427;50.934;6.776;2022-10-17T00:20:51;15.20;99.90
4826;DHT22;2427;50.934;6.776;2022-10-17T00:23:17;15.30;99.90
4826;DHT22;2427;50.934;6.776;2022-10-17T00:25:42;15.20;99.90
4826;DHT22;2427;50.934;6.776;2022-10-17T00:28:11;15.30;99.90
4826;DHT22;2427;50.934;6.776;2022-10-17T00:30:37;15.30;99.90
4826;DHT22;2427;50.934;6.776;2022-10-17T00:33:03;15.30;99.90
4826;DHT22;2427;50.934;6.776;2022-10-17T00:35:29;15.20;99.90
4826;DHT22;2427;50.934;6.776;2022-10-17T00:37:55;15.20;99.90
4826;DHT22;2427;50.934;6.776;2022-10-17T00:40:20;15.20;99.90
4826;DHT22;2427;50.934;6.776;2022-10-17T00:42:46;15.20;99.90
4826;DHT22;2427;50.934;6.776;2022-10-17T00:45:16;15.20;99.90
4826;DHT22;2427;50.934;6.776;2022-10-17T00:47:45;15.20;99.90
4826;DHT22;2427;50.934;6.776;2022-10-17T00:50:13;15.20;99.90
4826;DHT22;2427;50.934;6.776;2022-10-17T00:52:39;15.10;99.90
4826;DHT22;2427;50.934;6.776;2022-10-17T00:55:11;15.10;99.90
4826;DHT22;2427;50.934;6.776;2022-10-17T00:57:38;15.10;99.90
4826;DHT22;2427;50.934;6.776;2022-10-17T01:13:21;14.90;99.90
4826;DHT22;2427;50.934;6.776;2022-10-17T01:16:08;14.90;99.90
4826;DHT22;2427;50.934;6.776;2022-10-17T01:18:55;14.90;99.90
4826;DHT22;2427;50.934;6.776;2022-10-17T01:21:26;14.80;99.90
4826;DHT22;2427;50.934;6.776;2022-10-17T01:32:37;14.80;99.90
4826;DHT22;2427;50.934;6.776;2022-10-17T01:37:51;14.70;99.90
4826;DHT22;2427;50.934;6.776;2022-10-17T01:40:26;14.70;99.90
4826;DHT22;2427;50.934;6.776;2022-10-17T01:43:01;14.70;99.90
4826;DHT22;2427;50.934;6.776;2022-10-17T01:45:42;14.60;99.90
4826;DHT22;2427;50.934;6.776;2022-10-17T01:48:15;14.60;99.90
4826;DHT22;2427;50.934;6.776;2022-10-17T01:50:46;14.60;99.90
4826;DHT22;2427;50.934;6.776;2022-10-17T01:53:17;14.60;99.90
4826;DHT22;2427;50.934;6.776;2022-10-17T01:55:45;14.60;99.90
4826;DHT22;2427;50.934;6.776;2022-10-17T01:58:19;14.60;99.90
4826;DHT22;2427;50.934;6.776;2022-10-17T02:00:47;14.50;99.90
4826;DHT22;2427;50.934;6.776;2022-10-17T02:03:15;14.50;99.90
4826;DHT22;2427;50.934;6.776;2022-10-17T02:05:42;14.50;99.90
4826;DHT22;2427;50.934;6.776;2022-10-17T02:08:08;14.50;99.90
4826;DHT22;2427;50.934;6.776;2022-10-17T02:10:46;14.50;99.90
4826;DHT22;2427;50.934;6.776;2022-10-17T02:13:45;14.40;99.90
4826;DHT22;2427;50.934;6.776;2022-10-17T02:16:39;14.40;99.90
4826;DHT22;2427;50.934;6.776;2022-10-17T02:22:33;14.40;99.90
4826;DHT22;2427;50.934;6.776;2022-10-17T02:25:37;14.40;99.90
4826;DHT22;2427;50.934;6.776;2022-10-17T02:28:19;14.40;99.90
4826;DHT22;2427;50.934;6.776;2022-10-17T02:30:56;14.40;99.90
4826;DHT22;2427;50.934;6.776;2022-10-17T02:33:31;14.50;99.90
4826;DHT22;2427;50.934;6.776;2022-10-17T02:36:03;14.50;99.90
4826;DHT22;2427;50.934;6.776;2022-10-17T02:38:32;14.50;99.90
4826;DHT22;2427;50.934;6.776;2022-10-17T02:40:58;14.50;99.90
4826;DHT22;2427;50.934;6.776;2022-10-17T02:43:25;14.60;99.90
4826;DHT22;2427;50.934;6.776;2022-10-17T02:45:51;14.60;99.90
4826;DHT22;2427;50.934;6.776;2022-10-17T02:53:32;14.80;99.90
4826;DHT22;2427;50.934;6.776;2022-10-17T02:56:03;14.90;99.90
4826;DHT22;2427;50.934;6.776;2022-10-17T02:58:32;14.90;99.90
4826;DHT22;2427;50.934;6.776;2022-10-17T03:00:59;15.00;99.90
4826;DHT22;2427;50.934;6.776;2022-10-17T03:03:28;15.00;99.90
4826;DHT22;2427;50.934;6.776;2022-10-17T03:05:54;15.00;99.90
4826;DHT22;2427;50.934;6.776;2022-10-17T03:08:20;15.00;99.90
4826;DHT22;2427;50.934;6.776;2022-10-17T03:10:47;15.00;99.90
4826;DHT22;2427;50.934;6.776;2022-10-17T03:13:13;15.00;99.90
4826;DHT22;2427;50.934;6.776;2022-10-17T03:15:39;15.00;99.90
4826;DHT22;2427;50.934;6.776;2022-10-17T03:18:05;15.00;99.90
4826;DHT22;2427;50.934;6.776;2022-10-17T03:20:31;15.00;99.90
4826;DHT22;2427;50.934;6.776;2022-10-17T03:22:56;14.90;99.90
4826;DHT22;2427;50.934;6.776;2022-10-17T03:25:22;14.90;99.90
4826;DHT22;2427;50.934;6.776;2022-10-17T03:27:47;14.90;99.90
4826;DHT22;2427;50.934;6.776;2022-10-17T03:30:14;14.90;99.90
4826;DHT22;2427;50.934;6.776;2022-10-17T03:32:40;14.90;99.90
4826;DHT22;2427;50.934;6.776;2022-10-17T03:35:06;14.80;99.90
4826;DHT22;2427;50.934;6.776;2022-10-17T03:37:31;14.80;99.90
4826;DHT22;2427;50.934;6.776;2022-10-17T03:39:57;14.80;99.90
4826;DHT22;2427;50.934;6.776;2022-10-17T03:42:22;14.90;99.90
4826;DHT22;2427;50.934;6.776;2022-10-17T03:44:48;14.90;99.90
4826;DHT22;2427;50.934;6.776;2022-10-17T03:47:14;14.90;99.90
4826;DHT22;2427;50.934;6.776;2022-10-17T03:49:39;15.00;99.90
4826;DHT22;2427;50.934;6.776;2022-10-17T03:52:05;15.00;99.90
4826;DHT22;2427;50.934;6.776;2022-10-17T03:54:30;15.00;99.90
4826;DHT22;2427;50.934;6.776;2022-10-17T03:56:56;15.10;99.90
4826;DHT22;2427;50.934;6.776;2022-10-17T03:59:21;15.10;99.90
4826;DHT22;2427;50.934;6.776;2022-10-17T04:01:47;15.10;99.90
4826;DHT22;2427;50.934;6.776;2022-10-17T04:04:12;15.20;99.90
4826;DHT22;2427;50.934;6.776;2022-10-17T04:06:38;15.20;99.90
4826;DHT22;2427;50.934;6.776;2022-10-17T04:09:05;15.30;99.90
4826;DHT22;2427;50.934;6.776;2022-10-17T04:11:31;15.30;99.90
4826;DHT22;2427;50.934;6.776;2022-10-17T04:13:57;15.30;99.90
4826;DHT22;2427;50.934;6.776;2022-10-17T04:16:24;15.30;99.90
4826;DHT22;2427;50.934;6.776;2022-10-17T04:18:54;15.30;99.90
4826;DHT22;2427;50.934;6.776;2022-10-17T04:21:22;15.40;99.90
4826;DHT22;2427;50.934;6.776;2022-10-17T04:23:54;15.40;99.90
4826;DHT22;2427;50.934;6.776;2022-10-17T04:26:21;15.50;99.90
4826;DHT22;2427;50.934;6.776;2022-10-17T04:28:46;15.60;99.90
4826;DHT22;2427;50.934;6.776;2022-10-17T04:31:13;15.70;99.90
4826;DHT22;2427;50.934;6.776;2022-10-17T04:33:39;15.90;99.90
4826;DHT22;2427;50.934;6.776;2022-10-17T04:36:13;15.90;99.90
4826;DHT22;2427;50.934;6.776;2022-10-17T04:38:39;15.90;97.40
4826;DHT22;2427;50.934;6.776;2022-10-17T04:41:07;15.90;92.10
4826;DHT22;2427;50.934;6.776;2022-10-17T04:43:34;16.00;85.80
4826;DHT22;2427;50.934;6.776;2022-10-17T04:46:03;16.00;54.70
4826;DHT22;2427;50.934;6.776;2022-10-17T04:48:29;16.00;46.40
4826;DHT22;2427;50.934;6.776;2022-10-17T04:51:00;16.00;51.40
4826;DHT22;2427;50.934;6.776;2022-10-17T04:53:27;16.00;43.80
4826;DHT22;2427;50.934;6.776;2022-10-17T04:55:54;16.00;32.10
4826;DHT22;2427;50.934;6.776;2022-10-17T04:58:20;15.90;27.80
4826;DHT22;2427;50.934;6.776;2022-10-17T05:00:46;15.80;28.90
4826;DHT22;2427;50.934;6.776;2022-10-17T05:03:11;15.70;44.00
4826;DHT22;2427;50.934;6.776;2022-10-17T05:05:38;15.60;58.90
4826;DHT22;2427;50.934;6.776;2022-10-17T05:08:04;15.50;75.80
4826;DHT22;2427;50.934;6.776;2022-10-17T05:10:41;15.50;91.90
4826;DHT22;2427;50.934;6.776;2022-10-17T05:13:07;15.50;96.10
4826;DHT22;2427;50.934;6.776;2022-10-17T05:15:34;15.50;99.90
4826;DHT22;2427;50.934;6.776;2022-10-17T05:18:00;15.40;99.90
4826;DHT22;2427;50.934;6.776;2022-10-17T05:20:26;15.40;99.90
4826;DHT22;2427;50.934;6.776;2022-10-17T05:22:51;15.40;99.90
4826;DHT22;2427;50.934;6.776;2022-10-17T05:25:18;15.40;99.90
4826;DHT22;2427;50.934;6.776;2022-10-17T05:27:44;15.40;99.90
4826;DHT22;2427;50.934;6.776;2022-10-17T05:30:10;15.40;99.90
4826;DHT22;2427;50.934;6.776;2022-10-17T05:32:35;15.40;99.90
4826;DHT22;2427;50.934;6.776;2022-10-17T05:35:01;15.40;99.90
4826;DHT22;2427;50.934;6.776;2022-10-17T05:37:29;15.40;99.90
4826;DHT22;2427;50.934;6.776;2022-10-17T05:39:55;15.40;99.90
4826;DHT22;2427;50.934;6.776;2022-10-17T05:42:21;15.50;99.90
4826;DHT22;2427;50.934;6.776;2022-10-17T05:44:46;15.50;99.90
4826;DHT22;2427;50.934;6.776;2022-10-17T05:47:12;15.60;99.90
4826;DHT22;2427;50.934;6.776;2022-10-17T05:49:37;15.60;99.90
4826;DHT22;2427;50.934;6.776;2022-10-17T05:52:03;15.60;97.60
4826;DHT22;2427;50.934;6.776;2022-10-17T05:54:29;15.60;98.60
4826;DHT22;2427;50.934;6.776;2022-10-17T05:56:55;15.50;92.90
4826;DHT22;2427;50.934;6.776;2022-10-17T05:59:22;15.50;93.60
4826;DHT22;2427;50.934;6.776;2022-10-17T06:01:48;15.60;90.90
4826;DHT22;2427;50.934;6.776;2022-10-17T06:04:14;15.60;92.20
4826;DHT22;2427;50.934;6.776;2022-10-17T06:06:39;15.60;79.50
4826;DHT22;2427;50.934;6.776;2022-10-17T06:09:06;15.60;78.40
4826;DHT22;2427;50.934;6.776;2022-10-17T06:11:32;15.60;75.70
4826;DHT22;2427;50.934;6.776;2022-10-17T06:13:58;15.60;66.90
4826;DHT22;2427;50.934;6.776;2022-10-17T06:16:23;15.70;62.00
4826;DHT22;2427;50.934;6.776;2022-10-17T06:18:49;15.70;51.40
4826;DHT22;2427;50.934;6.776;2022-10-17T06:21:18;15.70;37.80
4826;DHT22;2427;50.934;6.776;2022-10-17T06:23:45;15.80;31.40
4826;DHT22;2427;50.934;6.776;2022-10-17T06:26:10;15.80;26.20
4826;DHT22;2427;50.934;6.776;2022-10-17T06:28:36;15.80;20.00
4826;DHT22;2427;50.934;6.776;2022-10-17T06:31:14;15.80;16.90
4826;DHT22;2427;50.934;6.776;2022-10-17T06:33:41;15.90;13.70
4826;DHT22;2427;50.934;6.776;2022-10-17T06:36:10;15.80;14.00
4826;DHT22;2427;50.934;6.776;2022-10-17T06:38:36;15.80;17.00
4826;DHT22;2427;50.934;6.776;2022-10-17T06:41:05;15.80;19.00
4826;DHT22;2427;50.934;6.776;2022-10-17T06:43:37;15.80;21.60
4826;DHT22;2427;50.934;6.776;2022-10-17T06:46:03;15.80;23.30
4826;DHT22;2427;50.934;6.776;2022-10-17T06:48:29;15.80;24.70
4826;DHT22;2427;50.934;6.776;2022-10-17T06:51:02;15.90;27.30
4826;DHT22;2427;50.934;6.776;2022-10-17T06:53:30;15.90;28.50
4826;DHT22;2427;50.934;6.776;2022-10-17T06:55:56;15.90;30.90
4826;DHT22;2427;50.934;6.776;2022-10-17T06:58:26;16.00;29.20
4826;DHT22;2427;50.934;6.776;2022-10-17T07:01:04;16.10;26.80
4826;DHT22;2427;50.934;6.776;2022-10-17T07:03:30;16.20;14.90
4826;DHT22;2427;50.934;6.776;2022-10-17T07:05:56;16.20;4.40
4826;DHT22;2427;50.934;6.776;2022-10-17T07:08:22;16.30;1.70
4826;DHT22;2427;50.934;6.776;2022-10-17T07:10:49;16.40;1.00
4826;DHT22;2427;50.934;6.776;2022-10-17T07:13:15;16.50;1.00
4826;DHT22;2427;50.934;6.776;2022-10-17T07:15:41;16.50;1.00
4826;DHT22;2427;50.934;6.776;2022-10-17T07:18:07;16.60;1.00
4826;DHT22;2427;50.934;6.776;2022-10-17T07:20:33;16.70;1.00
4826;DHT22;2427;50.934;6.776;2022-10-17T07:22:58;16.70;1.00
4826;DHT22;2427;50.934;6.776;2022-10-17T07:25:24;16.80;1.00
4826;DHT22;2427;50.934;6.776;2022-10-17T07:27:50;16.80;1.00
4826;DHT22;2427;50.934;6.776;2022-10-17T07:30:16;16.90;1.00
4826;DHT22;2427;50.934;6.776;2022-10-17T07:32:43;16.90;1.00
4826;DHT22;2427;50.934;6.776;2022-10-17T07:35:09;17.00;1.00
4826;DHT22;2427;50.934;6.776;2022-10-17T07:37:35;17.10;1.00
4826;DHT22;2427;50.934;6.776;2022-10-17T07:40:01;17.10;1.00
4826;DHT22;2427;50.934;6.776;2022-10-17T07:42:27;17.20;1.00
4826;DHT22;2427;50.934;6.776;2022-10-17T07:44:53;17.30;1.00
4826;DHT22;2427;50.934;6.776;2022-10-17T07:47:20;17.40;1.00
4826;DHT22;2427;50.934;6.776;2022-10-17T07:49:45;17.50;1.00
4826;DHT22;2427;50.934;6.776;2022-10-17T07:52:12;17.50;1.00
4826;DHT22;2427;50.934;6.776;2022-10-17T07:54:38;17.60;1.00
4826;DHT22;2427;50.934;6.776;2022-10-17T07:57:04;17.60;1.00
4826;DHT22;2427;50.934;6.776;2022-10-17T07:59:31;17.70;1.00
4826;DHT22;2427;50.934;6.776;2022-10-17T08:01:57;17.80;1.00
4826;DHT22;2427;50.934;6.776;2022-10-17T08:04:24;17.80;1.00
4826;DHT22;2427;50.934;6.776;2022-10-17T08:06:49;17.90;1.00
4826;DHT22;2427;50.934;6.776;2022-10-17T08:09:15;17.90;1.00
4826;DHT22;2427;50.934;6.776;2022-10-17T08:11:41;18.00;99.90
4826;DHT22;2427;50.934;6.776;2022-10-17T08:14:08;18.10;99.90
4826;DHT22;2427;50.934;6.776;2022-10-17T08:16:34;18.20;99.90
4826;DHT22;2427;50.934;6.776;2022-10-17T08:19:00;18.30;99.90
4826;DHT22;2427;50.934;6.776;2022-10-17T08:21:26;18.30;99.90
4826;DHT22;2427;50.934;6.776;2022-10-17T08:23:52;18.40;99.90
4826;DHT22;2427;50.934;6.776;2022-10-17T08:26:18;18.50;99.90
4826;DHT22;2427;50.934;6.776;2022-10-17T08:28:45;18.60;83.60
4826;DHT22;2427;50.934;6.776;2022-10-17T08:31:13;18.60;1.00
4826;DHT22;2427;50.934;6.776;2022-10-17T08:33:40;18.70;1.00
4826;DHT22;2427;50.934;6.776;2022-10-17T08:36:07;18.80;1.00
4826;DHT22;2427;50.934;6.776;2022-10-17T08:38:33;18.90;1.00
4826;DHT22;2427;50.934;6.776;2022-10-17T08:41:05;18.90;1.00
4826;DHT22;2427;50.934;6.776;2022-10-17T08:46:05;19.10;1.00
4826;DHT22;2427;50.934;6.776;2022-10-17T08:48:40;19.20;99.90
4826;DHT22;2427;50.934;6.776;2022-10-17T08:51:23;19.20;99.90
4826;DHT22;2427;50.934;6.776;2022-10-17T08:54:11;19.20;99.90
4826;DHT22;2427;50.934;6.776;2022-10-17T08:56:44;19.20;99.90
4826;DHT22;2427;50.934;6.776;2022-10-17T08:59:22;19.20;99.90
4826;DHT22;2427;50.934;6.776;2022-10-17T09:07:49;19.50;99.90
4826;DHT22;2427;50.934;6.776;2022-10-17T09:15:33;19.50;99.90
4826;DHT22;2427;50.934;6.776;2022-10-17T09:20:45;19.60;99.90
4826;DHT22;2427;50.934;6.776;2022-10-17T09:23:16;19.70;99.90
4826;DHT22;2427;50.934;6.776;2022-10-17T09:25:48;19.70;1.00
4826;DHT22;2427;50.934;6.776;2022-10-17T09:28:20;19.70;1.00
4826;DHT22;2427;50.934;6.776;2022-10-17T09:30:48;19.80;1.00
4826;DHT22;2427;50.934;6.776;2022-10-17T09:33:25;19.80;1.00
4826;DHT22;2427;50.934;6.776;2022-10-17T09:35:53;19.90;1.00
4826;DHT22;2427;50.934;6.776;2022-10-17T09:38:22;19.90;99.90
4826;DHT22;2427;50.934;6.776;2022-10-17T09:40:55;20.00;99.90
4826;DHT22;2427;50.934;6.776;2022-10-17T09:43:21;20.00;99.90
4826;DHT22;2427;50.934;6.776;2022-10-17T09:46:11;19.90;99.90
4826;DHT22;2427;50.934;6.776;2022-10-17T09:49:13;20.00;99.90
4826;DHT22;2427;50.934;6.776;2022-10-17T09:51:41;20.10;99.90
4826;DHT22;2427;50.934;6.776;2022-10-17T09:54:35;20.10;99.90
4826;DHT22;2427;50.934;6.776;2022-10-17T09:57:06;20.10;1.00
4826;DHT22;2427;50.934;6.776;2022-10-17T09:59:38;20.20;19.70
4826;DHT22;2427;50.934;6.776;2022-10-17T10:02:15;20.30;1.00
4826;DHT22;2427;50.934;6.776;2022-10-17T10:05:01;20.50;1.00
4826;DHT22;2427;50.934;6.776;2022-10-17T10:07:29;20.60;1.00
4826;DHT22;2427;50.934;6.776;2022-10-17T10:09:56;20.60;1.00
4826;DHT22;2427;50.934;6.776;2022-10-17T10:12:24;20.70;1.00
4826;DHT22;2427;50.934;6.776;2022-10-17T10:14:51;20.80;99.90
4826;DHT22;2427;50.934;6.776;2022-10-17T10:17:33;20.90;99.90
4826;DHT22;2427;50.934;6.776;2022-10-17T10:20:00;20.90;99.90
4826;DHT22;2427;50.934;6.776;2022-10-17T10:22:25;20.90;99.90
4826;DHT22;2427;50.934;6.776;2022-10-17T10:27:35;20.90;99.90
4826;DHT22;2427;50.934;6.776;2022-10-17T10:30:02;20.90;99.90
4826;DHT22;2427;50.934;6.776;2022-10-17T10:32:36;20.80;99.90
4826;DHT22;2427;50.934;6.776;2022-10-17T10:35:18;20.80;99.90
4826;DHT22;2427;50.934;6.776;2022-10-17T10:37:53;20.80;99.90
4826;DHT22;2427;50.934;6.776;2022-10-17T10:42:58;20.90;99.90
4826;DHT22;2427;50.934;6.776;2022-10-17T10:48:13;20.90;99.90
4826;DHT22;2427;50.934;6.776;2022-10-17T10:50:46;20.90;99.90
4826;DHT22;2427;50.934;6.776;2022-10-17T10:56:21;21.00;99.90
4826;DHT22;2427;50.934;6.776;2022-10-17T11:01:52;21.10;99.90
4826;DHT22;2427;50.934;6.776;2022-10-17T11:04:41;21.10;97.20
4826;DHT22;2427;50.934;6.776;2022-10-17T11:07:29;21.10;99.90
4826;DHT22;2427;50.934;6.776;2022-10-17T11:15:53;20.90;99.90
4826;DHT22;2427;50.934;6.776;2022-10-17T11:18:29;21.00;99.90
4826;DHT22;2427;50.934;6.776;2022-10-17T11:22:01;21.10;99.90
4826;DHT22;2427;50.934;6.776;2022-10-17T11:24:09;21.10;99.90
4826;DHT22;2427;50.934;6.776;2022-10-17T11:27:06;21.10;99.90
4826;DHT22;2427;50.934;6.776;2022-10-17T11:29:36;21.00;99.90
4826;DHT22;2427;50.934;6.776;2022-10-17T11:32:09;21.10;99.90
4826;DHT22;2427;50.934;6.776;2022-10-17T11:34:42;21.10;99.90
4826;DHT22;2427;50.934;6.776;2022-10-17T11:37:20;21.10;99.90
4826;DHT22;2427;50.934;6.776;2022-10-17T11:39:49;21.10;99.90
4826;DHT22;2427;50.934;6.776;2022-10-17T11:42:56;21.10;99.90
4826;DHT22;2427;50.934;6.776;2022-10-17T11:45:25;21.10;99.90
4826;DHT22;2427;50.934;6.776;2022-10-17T11:48:01;21.00;99.90
4826;DHT22;2427;50.934;6.776;2022-10-17T11:50:33;21.00;99.90
4826;DHT22;2427;50.934;6.776;2022-10-17T11:53:02;21.00;92.60
4826;DHT22;2427;50.934;6.776;2022-10-17T11:55:30;21.00;99.90
4826;DHT22;2427;50.934;6.776;2022-10-17T11:58:13;21.10;89.10
4826;DHT22;2427;50.934;6.776;2022-10-17T12:03:51;21.00;43.80
4826;DHT22;2427;50.934;6.776;2022-10-17T12:14:44;20.90;49.30
4826;DHT22;2427;50.934;6.776;2022-10-17T12:17:30;20.80;97.20
4826;DHT22;2427;50.934;6.776;2022-10-17T12:20:37;20.70;99.90
4826;DHT22;2427;50.934;6.776;2022-10-17T12:23:19;20.70;99.90
4826;DHT22;2427;50.934;6.776;2022-10-17T12:25:54;20.70;99.90
4826;DHT22;2427;50.934;6.776;2022-10-17T12:28:28;20.70;99.90
4826;DHT22;2427;50.934;6.776;2022-10-17T12:33:29;20.60;99.90
4826;DHT22;2427;50.934;6.776;2022-10-17T12:38:44;20.60;99.90
4826;DHT22;2427;50.934;6.776;2022-10-17T12:41:10;20.60;99.90
4826;DHT22;2427;50.934;6.776;2022-10-17T12:43:50;20.50;99.90
4826;DHT22;2427;50.934;6.776;2022-10-17T12:52:22;20.50;99.90
4826;DHT22;2427;50.934;6.776;2022-10-17T12:57:39;20.50;99.90
4826;DHT22;2427;50.934;6.776;2022-10-17T13:00:26;20.50;99.90
4826;DHT22;2427;50.934;6.776;2022-10-17T13:02:55;20.50;99.90
4826;DHT22;2427;50.934;6.776;2022-10-17T13:07:51;20.50;99.90
4826;DHT22;2427;50.934;6.776;2022-10-17T13:10:27;20.50;99.90
4826;DHT22;2427;50.934;6.776;2022-10-17T13:13:03;20.50;99.90
4826;DHT22;2427;50.934;6.776;2022-10-17T13:15:30;20.50;99.90
4826;DHT22;2427;50.934;6.776;2022-10-17T13:17:57;20.60;99.90
4826;DHT22;2427;50.934;6.776;2022-10-17T13:20:25;20.60;99.90
4826;DHT22;2427;50.934;6.776;2022-10-17T13:22:53;20.60;99.90
4826;DHT22;2427;50.934;6.776;2022-10-17T13:25:20;20.60;99.90
4826;DHT22;2427;50.934;6.776;2022-10-17T13:27:46;20.70;99.90
4826;DHT22;2427;50.934;6.776;2022-10-17T13:30:25;20.70;99.90
4826;DHT22;2427;50.934;6.776;2022-10-17T13:32:51;20.70;99.90
4826;DHT22;2427;50.934;6.776;2022-10-17T13:35:37;20.80;99.90
4826;DHT22;2427;50.934;6.776;2022-10-17T13:38:04;20.80;99.90
4826;DHT22;2427;50.934;6.776;2022-10-17T13:40:40;20.70;99.90
4826;DHT22;2427;50.934;6.776;2022-10-17T13:43:16;20.70;99.90
4826;DHT22;2427;50.934;6.776;2022-10-17T13:45:56;20.70;99.90
4826;DHT22;2427;50.934;6.776;2022-10-17T13:48:25;20.70;99.90
4826;DHT22;2427;50.934;6.776;2022-10-17T13:50:56;20.70;99.90
4826;DHT22;2427;50.934;6.776;2022-10-17T13:53:35;20.80;99.90
4826;DHT22;2427;50.934;6.776;2022-10-17T13:56:22;20.80;99.90
4826;DHT22;2427;50.934;6.776;2022-10-17T13:58:53;20.90;99.90
4826;DHT22;2427;50.934;6.776;2022-10-17T14:01:22;21.00;99.90
4826;DHT22;2427;50.934;6.776;2022-10-17T14:03:48;21.00;99.90
4826;DHT22;2427;50.934;6.776;2022-10-17T14:06:24;21.10;99.90
4826;DHT22;2427;50.934;6.776;2022-10-17T14:09:15;21.10;99.90
4826;DHT22;2427;50.934;6.776;2022-10-17T14:11:43;21.30;99.90
4826;DHT22;2427;50.934;6.776;2022-10-17T14:14:21;21.30;99.90
4826;DHT22;2427;50.934;6.776;2022-10-17T14:16:48;21.30;99.90
4826;DHT22;2427;50.934;6.776;2022-10-17T14:19:24;21.30;99.90
4826;DHT22;2427;50.934;6.776;2022-10-17T14:22:13;21.30;99.90
4826;DHT22;2427;50.934;6.776;2022-10-17T14:24:39;21.30;99.90
4826;DHT22;2427;50.934;6.776;2022-10-17T14:27:35;21.20;99.90
4826;DHT22;2427;50.934;6.776;2022-10-17T14:32:53;21.20;99.90
4826;DHT22;2427;50.934;6.776;2022-10-17T14:35:20;21.20;99.90
4826;DHT22;2427;50.934;6.776;2022-10-17T14:37:48;21.20;99.90
4826;DHT22;2427;50.934;6.776;2022-10-17T14:40:23;21.10;99.90
4826;DHT22;2427;50.934;6.776;2022-10-17T14:42:51;21.10;99.90
4826;DHT22;2427;50.934;6.776;2022-10-17T14:47:55;20.90;99.90
4826;DHT22;2427;50.934;6.776;2022-10-17T14:50:28;21.00;99.90
4826;DHT22;2427;50.934;6.776;2022-10-17T14:55:35;20.90;99.90
4826;DHT22;2427;50.934;6.776;2022-10-17T14:58:15;20.90;92.20
4826;DHT22;2427;50.934;6.776;2022-10-17T15:00:41;20.90;99.10
4826;DHT22;2427;50.934;6.776;2022-10-17T15:03:06;20.90;54.90
4826;DHT22;2427;50.934;6.776;2022-10-17T15:05:33;20.90;38.80
4826;DHT22;2427;50.934;6.776;2022-10-17T15:07:59;20.80;43.00
4826;DHT22;2427;50.934;6.776;2022-10-17T15:10:33;20.80;40.70
4826;DHT22;2427;50.934;6.776;2022-10-17T15:13:00;20.70;37.00
4826;DHT22;2427;50.934;6.776;2022-10-17T15:15:29;20.70;45.00
4826;DHT22;2427;50.934;6.776;2022-10-17T15:17:55;20.70;47.30
4826;DHT22;2427;50.934;6.776;2022-10-17T15:20:21;20.70;55.80
4826;DHT22;2427;50.934;6.776;2022-10-17T15:22:51;20.70;53.40
4826;DHT22;2427;50.934;6.776;2022-10-17T15:25:18;20.60;62.90
4826;DHT22;2427;50.934;6.776;2022-10-17T15:27:43;20.50;96.80
4826;DHT22;2427;50.934;6.776;2022-10-17T15:30:24;20.50;93.70
4826;DHT22;2427;50.934;6.776;2022-10-17T15:32:50;20.40;99.90
4826;DHT22;2427;50.934;6.776;2022-10-17T15:35:17;20.40;99.90
4826;DHT22;2427;50.934;6.776;2022-10-17T15:37:43;20.30;99.90
4826;DHT22;2427;50.934;6.776;2022-10-17T15:40:28;20.30;99.90
4826;DHT22;2427;50.934;6.776;2022-10-17T15:42:54;20.30;99.90
4826;DHT22;2427;50.934;6.776;2022-10-17T15:45:23;20.30;99.90
4826;DHT22;2427;50.934;6.776;2022-10-17T15:47:52;20.20;99.90
4826;DHT22;2427;50.934;6.776;2022-10-17T15:50:18;20.20;99.90
4826;DHT22;2427;50.934;6.776;2022-10-17T15:52:44;20.10;99.90
4826;DHT22;2427;50.934;6.776;2022-10-17T15:55:11;20.00;99.90
4826;DHT22;2427;50.934;6.776;2022-10-17T15:57:40;20.00;1.00
4826;DHT22;2427;50.934;6.776;2022-10-17T16:00:14;20.00;1.00
4826;DHT22;2427;50.934;6.776;2022-10-17T16:02:41;20.00;1.00
4826;DHT22;2427;50.934;6.776;2022-10-17T16:05:20;19.90;1.00
4826;DHT22;2427;50.934;6.776;2022-10-17T16:07:50;19.80;1.00
4826;DHT22;2427;50.934;6.776;2022-10-17T16:10:17;19.80;1.00
4826;DHT22;2427;50.934;6.776;2022-10-17T16:12:43;19.80;99.90
4826;DHT22;2427;50.934;6.776;2022-10-17T16:15:14;19.60;1.00
4826;DHT22;2427;50.934;6.776;2022-10-17T16:17:40;19.50;1.00
4826;DHT22;2427;50.934;6.776;2022-10-17T16:20:06;19.30;99.90
4826;DHT22;2427;50.934;6.776;2022-10-17T16:22:33;19.20;99.90
4826;DHT22;2427;50.934;6.776;2022-10-17T16:25:07;19.10;1.00
4826;DHT22;2427;50.934;6.776;2022-10-17T16:27:36;18.90;1.00
4826;DHT22;2427;50.934;6.776;2022-10-17T16:30:03;18.80;1.00
4826;DHT22;2427;50.934;6.776;2022-10-17T16:32:29;18.70;99.90
4826;DHT22;2427;50.934;6.776;2022-10-17T16:34:55;18.50;1.00
4826;DHT22;2427;50.934;6.776;2022-10-17T16:37:20;18.50;1.00
4826;DHT22;2427;50.934;6.776;2022-10-17T16:39:46;18.40;1.00
4826;DHT22;2427;50.934;6.776;2022-10-17T16:42:17;18.20;99.90
4826;DHT22;2427;50.934;6.776;2022-10-17T16:44:43;18.10;1.00
4826;DHT22;2427;50.934;6.776;2022-10-17T16:47:09;18.00;1.00
4826;DHT22;2427;50.934;6.776;2022-10-17T16:49:34;17.90;7.70
4826;DHT22;2427;50.934;6.776;2022-10-17T16:52:00;17.80;98.20
4826;DHT22;2427;50.934;6.776;2022-10-17T16:54:25;17.80;99.90
4826;DHT22;2427;50.934;6.776;2022-10-17T16:56:51;17.70;99.90
4826;DHT22;2427;50.934;6.776;2022-10-17T16:59:17;17.70;99.90
4826;DHT22;2427;50.934;6.776;2022-10-17T17:01:42;17.60;99.90
4826;DHT22;2427;50.934;6.776;2022-10-17T17:04:08;17.60;99.90
4826;DHT22;2427;50.934;6.776;2022-10-17T17:06:34;17.60;99.90
4826;DHT22;2427;50.934;6.776;2022-10-17T17:09:00;17.50;99.90
4826;DHT22;2427;50.934;6.776;2022-10-17T17:11:27;17.50;99.90
4826;DHT22;2427;50.934;6.776;2022-10-17T17:13:56;17.50;99.90
4826;DHT22;2427;50.934;6.776;2022-10-17T17:16:23;17.50;99.90
4826;DHT22;2427;50.934;6.776;2022-10-17T17:18:54;17.40;99.90
4826;DHT22;2427;50.934;6.776;2022-10-17T17:21:19;17.40;99.90
4826;DHT22;2427;50.934;6.776;2022-10-17T17:23:45;17.40;99.90
4826;DHT22;2427;50.934;6.776;2022-10-17T17:26:13;17.30;99.90
4826;DHT22;2427;50.934;6.776;2022-10-17T17:28:39;17.30;99.90
4826;DHT22;2427;50.934;6.776;2022-10-17T17:31:07;17.20;99.90
4826;DHT22;2427;50.934;6.776;2022-10-17T17:33:33;17.20;99.90
4826;DHT22;2427;50.934;6.776;2022-10-17T17:36:00;17.20;99.90
4826;DHT22;2427;50.934;6.776;2022-10-17T17:38:30;17.20;99.90
4826;DHT22;2427;50.934;6.776;2022-10-17T17:40:57;17.10;99.90
4826;DHT22;2427;50.934;6.776;2022-10-17T17:43:23;17.00;99.90
4826;DHT22;2427;50.934;6.776;2022-10-17T17:45:48;17.00;99.90
4826;DHT22;2427;50.934;6.776;2022-10-17T17:48:14;17.00;99.90
4826;DHT22;2427;50.934;6.776;2022-10-17T17:50:40;17.00;99.90
4826;DHT22;2427;50.934;6.776;2022-10-17T17:53:07;16.90;99.90
4826;DHT22;2427;50.934;6.776;2022-10-17T17:55:33;16.90;99.90
4826;DHT22;2427;50.934;6.776;2022-10-17T17:57:59;16.90;99.90
4826;DHT22;2427;50.934;6.776;2022-10-17T18:00:25;16.80;99.90
4826;DHT22;2427;50.934;6.776;2022-10-17T18:02:50;16.80;99.90
4826;DHT22;2427;50.934;6.776;2022-10-17T18:05:16;16.80;99.90
4826;DHT22;2427;50.934;6.776;2022-10-17T18:07:42;16.80;99.90